Time;durP1;ratioP1;P1;durP2;ratioP2;P2;SDS_P1;SDS_P2;PMS_P1;PMS_P2;Temp;Humidity;BMP_temperature;BMP_pressure;BME280_temperature;BME280_humidity;BME280_pressure;Samples;Min_cycle;Max_cycle;Signal;HPM_P1;HPM_P2
2024/01/31 00:01:37;;;;;;;;;;;;;;;2.54;59.30;101098.03;4414045;32;33333;-83
2024/01/31 00:04:05;;;;;;;;;;;;;;;2.52;59.25;101096.12;4405799;32;33510;-83
2024/01/31 00:06:32;;;;;;;;;;;;;;;2.41;59.67;101098.75;4392099;32;32564;-85
2024/01/31 00:09:00;;;;;;;;;;;;;;;2.52;59.51;101097.00;4404460;32;33736;-84
2024/01/31 00:11:30;;;;;;;;;;;;;;;2.38;59.54;101093.41;4420846;32;33462;-85
2024/01/31 00:13:58;;;;;;;;;;;;;;;2.35;59.75;101095.75;4420704;32;33775;-84
2024/01/31 00:16:25;;;;;;;;;;;;;;;2.35;59.71;101102.50;4417303;32;33885;-82
2024/01/31 00:18:52;;;;;;;;;;;;;;;2.31;59.76;101103.06;4406256;32;34179;-83
2024/01/31 00:21:20;;;;;;;;;;;;;;;2.34;59.21;101104.19;4404668;32;33697;-83
2024/01/31 00:23:48;;;;;;;;;;;;;;;2.24;59.53;101099.16;4391674;32;32683;-82
2024/01/31 00:26:16;;;;;;;;;;;;;;;2.31;59.31;101096.28;4403690;32;34557;-82
2024/01/31 00:28:44;;;;;;;;;;;;;;;2.28;58.70;101097.72;4404348;32;34467;-81
2024/01/31 00:31:11;;;;;;;;;;;;;;;2.21;58.81;101098.91;4404487;32;32164;-83
2024/01/31 00:33:39;;;;;;;;;;;;;;;2.21;58.63;101093.78;4405167;32;34648;-80
2024/01/31 00:36:06;;;;;;;;;;;;;;;2.31;58.46;101092.81;4410456;32;34378;-82
2024/01/31 00:38:33;;;;;;;;;;;;;;;2.20;58.66;101102.25;4405010;32;33879;-81
2024/01/31 00:41:00;;;;;;;;;;;;;;;2.17;58.49;101096.91;4404123;32;33598;-81
2024/01/31 00:43:28;;;;;;;;;;;;;;;2.12;58.84;101101.66;4414441;32;32376;-80
2024/01/31 00:45:55;;;;;;;;;;;;;;;2.07;58.80;101097.84;4404459;32;34239;-82
2024/01/31 00:48:24;;;;;;;;;;;;;;;1.91;59.44;101095.75;4404595;32;33483;-81
2024/01/31 00:50:52;;;;;;;;;;;;;;;2.01;59.27;101096.47;4404536;32;32136;-82
2024/01/31 00:53:19;;;;;;;;;;;;;;;2.09;59.11;101090.31;4405520;32;34175;-81
2024/01/31 00:55:47;;;;;;;;;;;;;;;2.00;59.44;101092.13;4404512;32;32992;-81
2024/01/31 00:58:14;;;;;;;;;;;;;;;2.09;59.02;101087.75;4423140;32;34965;-81
2024/01/31 01:00:41;;;;;;;;;;;;;;;2.05;59.00;101085.72;4398365;32;31774;-83
2024/01/31 01:03:10;;;;;;;;;;;;;;;2.13;59.04;101080.41;4408948;32;33664;-83
2024/01/31 01:05:37;;;;;;;;;;;;;;;2.07;59.46;101090.16;4414540;32;34391;-82
2024/01/31 01:08:06;;;;;;;;;;;;;;;2.24;58.66;101078.69;4410383;32;34007;-82
2024/01/31 01:10:33;;;;;;;;;;;;;;;2.11;58.75;101079.38;4402741;32;32049;-82
2024/01/31 01:13:01;;;;;;;;;;;;;;;2.02;58.94;101081.25;4404097;32;34742;-82
2024/01/31 01:15:28;;;;;;;;;;;;;;;2.05;59.22;101081.50;4404153;32;33904;-81
2024/01/31 01:17:56;;;;;;;;;;;;;;;2.11;59.26;101078.50;4410948;32;34040;-82
2024/01/31 01:20:23;;;;;;;;;;;;;;;2.14;58.83;101077.06;4417439;32;33144;-81
2024/01/31 01:22:51;;;;;;;;;;;;;;;2.06;59.00;101073.03;4403848;32;33718;-82
2024/01/31 01:25:18;;;;;;;;;;;;;;;2.04;59.21;101071.13;4404953;32;34460;-82
2024/01/31 01:27:50;;;;;;;;;;;;;;;2.00;59.47;101074.22;4404038;32;32318;-83
2024/01/31 01:30:19;;;;;;;;;;;;;;;2.11;59.24;101065.72;4389288;32;33212;-80
2024/01/31 01:32:46;;;;;;;;;;;;;;;2.03;59.35;101067.69;4406820;32;35394;-81
2024/01/31 01:35:14;;;;;;;;;;;;;;;2.03;59.39;101069.34;4408390;32;34036;-81
2024/01/31 01:37:44;;;;;;;;;;;;;;;2.03;59.48;101071.91;4408616;32;34293;-81
2024/01/31 01:40:11;;;;;;;;;;;;;;;2.06;59.55;101059.34;4405097;32;34225;-83
2024/01/31 01:42:38;;;;;;;;;;;;;;;2.02;59.95;101065.03;4418549;32;35032;-82
2024/01/31 01:45:06;;;;;;;;;;;;;;;2.09;59.59;101057.03;4420204;32;34145;-81
2024/01/31 01:47:36;;;;;;;;;;;;;;;2.00;59.46;101056.31;4405622;32;34204;-82
2024/01/31 01:50:03;;;;;;;;;;;;;;;1.90;59.47;101055.62;4405232;32;33273;-83
2024/01/31 01:52:31;;;;;;;;;;;;;;;2.05;58.69;101060.16;4420928;32;34074;-82
2024/01/31 01:54:58;;;;;;;;;;;;;;;1.93;58.86;101060.97;4421892;32;34248;-81
2024/01/31 01:57:26;;;;;;;;;;;;;;;1.94;58.88;101055.09;4394746;32;33663;-85
2024/01/31 01:59:53;;;;;;;;;;;;;;;2.03;58.50;101046.31;4421270;32;33611;-82
2024/01/31 02:02:20;;;;;;;;;;;;;;;2.02;58.48;101042.00;4407680;32;36208;-81
2024/01/31 02:04:48;;;;;;;;;;;;;;;1.91;58.31;101036.94;4421760;32;34439;-82
2024/01/31 02:07:20;;;;;;;;;;;;;;;1.92;58.40;101030.16;4406348;32;33985;-83
2024/01/31 02:09:48;;;;;;;;;;;;;;;1.91;58.59;101039.50;4422249;32;33596;-82
2024/01/31 02:12:16;;;;;;;;;;;;;;;1.77;58.68;101031.53;4408439;32;33642;-81
2024/01/31 02:14:47;;;;;;;;;;;;;;;1.82;58.92;101031.13;4408484;32;35091;-82
2024/01/31 02:17:15;;;;;;;;;;;;;;;1.82;59.03;101028.56;4406021;32;34917;-82
2024/01/31 02:19:42;;;;;;;;;;;;;;;1.88;59.13;101029.03;4407000;32;33056;-83
2024/01/31 02:22:15;;;;;;;;;;;;;;;1.84;59.48;101024.44;4407003;32;34195;-83
2024/01/31 02:24:43;;;;;;;;;;;;;;;1.74;60.03;101027.06;4413095;32;35259;-85
2024/01/31 02:27:10;;;;;;;;;;;;;;;1.91;59.86;101030.94;4428181;32;34995;-83
2024/01/31 02:29:38;;;;;;;;;;;;;;;1.82;59.97;101026.00;4418564;32;34305;-81
2024/01/31 02:32:05;;;;;;;;;;;;;;;1.88;60.09;101023.91;4418318;32;33925;-84
2024/01/31 02:34:33;;;;;;;;;;;;;;;1.93;60.04;101020.06;4419165;32;34128;-83
2024/01/31 02:37:00;;;;;;;;;;;;;;;1.95;59.99;101021.03;4432368;32;34181;-83
2024/01/31 02:39:28;;;;;;;;;;;;;;;1.87;59.86;101019.56;4421464;32;32919;-83
2024/01/31 02:41:57;;;;;;;;;;;;;;;1.85;60.13;101018.53;4420641;32;34724;-85
2024/01/31 02:44:24;;;;;;;;;;;;;;;1.98;59.48;101015.28;4421323;32;32695;-85
2024/01/31 02:46:52;;;;;;;;;;;;;;;1.92;59.24;101008.00;4421528;32;35015;-83
2024/01/31 02:49:19;;;;;;;;;;;;;;;1.96;59.26;101006.59;4419217;32;34202;-82
2024/01/31 02:51:46;;;;;;;;;;;;;;;1.93;59.52;101004.72;4420751;32;34278;-82
2024/01/31 02:54:14;;;;;;;;;;;;;;;1.98;59.06;100997.38;4420189;32;33788;-84
2024/01/31 02:56:41;;;;;;;;;;;;;;;1.87;59.04;100994.00;4420284;32;34110;-82
2024/01/31 02:59:08;;;;;;;;;;;;;;;1.93;58.99;100999.59;4419866;32;32681;-82
2024/01/31 03:01:42;;;;;;;;;;;;;;;1.86;59.26;100997.34;4419955;32;34921;-82
2024/01/31 03:04:09;;;;;;;;;;;;;;;1.91;59.24;101002.81;4419702;32;34082;-84
2024/01/31 03:06:36;;;;;;;;;;;;;;;1.88;59.31;101000.00;4418897;32;34982;-81
2024/01/31 03:09:05;;;;;;;;;;;;;;;1.93;58.84;101004.72;4407388;32;32887;-84
2024/01/31 03:11:32;;;;;;;;;;;;;;;1.87;58.90;101009.34;4418818;32;34196;-82
2024/01/31 03:13:59;;;;;;;;;;;;;;;1.83;59.12;101015.00;4419546;32;34378;-84
2024/01/31 03:16:26;;;;;;;;;;;;;;;1.83;59.42;101007.31;4421038;32;34369;-82
2024/01/31 03:18:56;;;;;;;;;;;;;;;1.88;59.14;101006.00;4420667;32;32830;-83
2024/01/31 03:21:23;;;;;;;;;;;;;;;1.91;58.67;101008.81;4419307;32;35096;-82
2024/01/31 03:23:51;;;;;;;;;;;;;;;1.66;59.24;101008.56;4417933;32;34387;-83
2024/01/31 03:26:18;;;;;;;;;;;;;;;1.84;58.94;101009.09;4421661;32;34938;-84
2024/01/31 03:28:45;;;;;;;;;;;;;;;1.76;58.45;101009.28;4419803;32;33326;-84
2024/01/31 03:31:13;;;;;;;;;;;;;;;1.72;58.57;101002.16;4419361;32;34437;-82
2024/01/31 03:33:40;;;;;;;;;;;;;;;1.76;58.79;100999.94;4421397;32;34416;-81
2024/01/31 03:36:11;;;;;;;;;;;;;;;1.91;58.25;101000.25;4419934;32;33858;-81
2024/01/31 03:38:38;;;;;;;;;;;;;;;1.71;58.36;101006.37;4407447;32;32875;-82
2024/01/31 03:41:06;;;;;;;;;;;;;;;1.67;58.40;100996.69;4420020;32;35512;-82
2024/01/31 03:43:33;;;;;;;;;;;;;;;1.61;58.73;100994.53;4409072;32;34152;-82
2024/01/31 03:46:04;;;;;;;;;;;;;;;1.73;58.68;100993.72;4420558;32;34078;-82
2024/01/31 03:48:32;;;;;;;;;;;;;;;1.67;59.03;100999.25;4409869;32;33909;-81
2024/01/31 03:50:59;;;;;;;;;;;;;;;1.63;59.24;100997.22;4424628;32;34189;-83
2024/01/31 03:53:26;;;;;;;;;;;;;;;1.67;58.95;100999.25;4420838;32;34593;-82
2024/01/31 03:55:54;;;;;;;;;;;;;;;1.65;58.88;100995.69;4407005;32;34761;-82
2024/01/31 03:58:22;;;;;;;;;;;;;;;1.62;58.77;101005.66;4420714;32;33187;-81
2024/01/31 04:00:49;;;;;;;;;;;;;;;1.65;59.01;100999.13;4420349;32;34227;-82
2024/01/31 04:03:20;;;;;;;;;;;;;;;1.58;59.19;101006.19;4420977;32;34005;-81
2024/01/31 04:05:48;;;;;;;;;;;;;;;1.62;59.36;101008.22;4421526;32;35129;-81
2024/01/31 04:08:15;;;;;;;;;;;;;;;1.72;59.05;101007.28;4420739;32;33118;-83
2024/01/31 04:10:44;;;;;;;;;;;;;;;1.64;59.10;101009.25;4421536;32;35024;-82
2024/01/31 04:13:11;;;;;;;;;;;;;;;1.63;59.14;101010.00;4420836;32;34413;-82
2024/01/31 04:15:38;;;;;;;;;;;;;;;1.66;58.79;101007.69;4418259;32;33606;-83
2024/01/31 04:18:07;;;;;;;;;;;;;;;1.66;58.48;101006.00;4421503;32;34425;-82
2024/01/31 04:20:35;;;;;;;;;;;;;;;1.61;58.81;101009.00;4421360;32;34885;-84
2024/01/31 04:23:02;;;;;;;;;;;;;;;1.53;59.28;101010.06;4417003;32;34282;-83
2024/01/31 04:25:29;;;;;;;;;;;;;;;1.55;59.03;101018.72;4421335;32;35291;-84
2024/01/31 04:27:57;;;;;;;;;;;;;;;1.51;59.22;101021.81;4421271;32;34866;-83
2024/01/31 04:30:24;;;;;;;;;;;;;;;1.36;59.60;101019.84;4407920;32;33863;-83
2024/01/31 04:32:52;;;;;;;;;;;;;;;1.52;59.23;101018.53;4381721;32;32607;-82
2024/01/31 04:35:19;;;;;;;;;;;;;;;1.55;58.75;101014.50;4406133;32;35014;-84
2024/01/31 04:37:46;;;;;;;;;;;;;;;1.49;58.77;101015.72;4412150;32;33456;-82
2024/01/31 04:40:15;;;;;;;;;;;;;;;1.54;58.79;101016.97;4421391;32;34918;-81
2024/01/31 04:42:44;;;;;;;;;;;;;;;1.55;58.55;101014.50;4420490;32;34389;-82
2024/01/31 04:45:11;;;;;;;;;;;;;;;1.50;58.60;101009.81;4420585;32;34012;-82
2024/01/31 04:47:40;;;;;;;;;;;;;;;1.54;58.62;101006.72;4420201;32;33506;-83
2024/01/31 04:50:08;;;;;;;;;;;;;;;1.60;58.66;101008.09;4419662;32;34955;-81
2024/01/31 04:52:35;;;;;;;;;;;;;;;1.51;58.73;101007.38;4417426;32;35335;-82
2024/01/31 04:55:04;;;;;;;;;;;;;;;1.48;58.83;101016.47;4417146;32;34894;-82
2024/01/31 04:57:31;;;;;;;;;;;;;;;1.45;59.14;101012.91;4409130;32;33492;-82
2024/01/31 04:59:59;;;;;;;;;;;;;;;1.43;59.52;101014.44;4408409;32;34838;-82
2024/01/31 05:02:26;;;;;;;;;;;;;;;1.47;59.48;101005.34;4420051;32;35022;-81
2024/01/31 05:04:54;;;;;;;;;;;;;;;1.43;59.63;101009.34;4405693;32;34343;-83
2024/01/31 05:07:22;;;;;;;;;;;;;;;1.45;59.65;101006.91;4419621;32;33242;-82
2024/01/31 05:09:49;;;;;;;;;;;;;;;1.50;59.70;101007.28;4420439;32;33729;-82
2024/01/31 05:12:16;;;;;;;;;;;;;;;1.49;59.91;101013.16;4419039;32;34114;-83
2024/01/31 05:14:43;;;;;;;;;;;;;;;1.58;59.12;101011.31;4419110;32;33775;-82
2024/01/31 05:17:15;;;;;;;;;;;;;;;1.57;58.66;101010.41;4420188;32;33632;-82
2024/01/31 05:19:42;;;;;;;;;;;;;;;1.43;59.12;101011.88;4419065;32;33717;-82
2024/01/31 05:22:10;;;;;;;;;;;;;;;1.44;59.34;101008.59;4419238;32;33067;-81
2024/01/31 05:24:37;;;;;;;;;;;;;;;1.59;59.00;101019.13;4420504;32;34340;-82
2024/01/31 05:27:05;;;;;;;;;;;;;;;1.49;58.90;101018.28;4420432;32;34243;-83
2024/01/31 05:29:32;;;;;;;;;;;;;;;1.44;58.99;101011.13;4419154;32;34868;-82
2024/01/31 05:31:59;;;;;;;;;;;;;;;1.42;59.12;101012.66;4420288;32;34530;-84
2024/01/31 05:34:27;;;;;;;;;;;;;;;1.45;59.12;101007.81;4420932;32;35050;-81
2024/01/31 05:36:55;;;;;;;;;;;;;;;1.44;58.97;101011.13;4420877;32;34255;-82
2024/01/31 05:39:22;;;;;;;;;;;;;;;1.32;59.28;101010.16;4416383;32;35281;-84
2024/01/31 05:41:49;;;;;;;;;;;;;;;1.41;59.44;101015.12;4405755;32;34396;-82
2024/01/31 05:44:17;;;;;;;;;;;;;;;1.40;59.38;101014.22;4403299;32;33416;-82
2024/01/31 05:46:45;;;;;;;;;;;;;;;1.37;59.21;101008.88;4418855;32;33317;-84
2024/01/31 05:49:13;;;;;;;;;;;;;;;1.44;59.21;101013.69;4420631;32;34980;-83
2024/01/31 05:51:40;;;;;;;;;;;;;;;1.36;59.46;101013.84;4416018;32;34269;-81
2024/01/31 05:54:08;;;;;;;;;;;;;;;1.34;59.81;101006.06;4404897;32;33449;-82
2024/01/31 05:56:37;;;;;;;;;;;;;;;1.35;59.75;101010.41;4405511;32;33272;-83
2024/01/31 05:59:05;;;;;;;;;;;;;;;1.29;60.23;101009.94;4417829;32;33776;-84
2024/01/31 06:01:32;;;;;;;;;;;;;;;1.32;60.37;101002.47;4419825;32;34450;-86
2024/01/31 06:04:02;;;;;;;;;;;;;;;1.37;60.26;101006.31;4419730;32;35160;-84
2024/01/31 06:06:30;;;;;;;;;;;;;;;1.51;59.94;100998.81;4420277;32;33728;-86
2024/01/31 06:08:57;;;;;;;;;;;;;;;1.46;60.29;100998.47;4420139;32;34122;-85
2024/01/31 06:11:24;;;;;;;;;;;;;;;1.27;60.99;101000.34;4419710;32;34888;-85
2024/01/31 06:13:52;;;;;;;;;;;;;;;1.37;60.78;100992.66;4420547;32;34301;-85
2024/01/31 06:16:19;;;;;;;;;;;;;;;1.41;60.61;101002.34;4420040;32;33646;-85
2024/01/31 06:18:46;;;;;;;;;;;;;;;1.44;60.64;101005.12;4420339;32;33992;-85
2024/01/31 06:21:13;;;;;;;;;;;;;;;1.40;60.82;100998.91;4420238;32;33897;-84
2024/01/31 06:23:41;;;;;;;;;;;;;;;1.43;60.86;101006.78;4420165;32;34116;-83
2024/01/31 06:26:08;;;;;;;;;;;;;;;1.52;60.64;101008.28;4406743;32;33084;-84
2024/01/31 06:28:38;;;;;;;;;;;;;;;1.55;60.45;101013.63;4419977;32;33812;-83
2024/01/31 06:31:15;;;;;;;;;;;;;;;1.53;60.47;101002.41;4406334;32;35999;-85
2024/01/31 06:33:44;;;;;;;;;;;;;;;1.62;60.24;101015.88;4420339;32;33790;-84
2024/01/31 06:36:12;;;;;;;;;;;;;;;1.63;60.16;101007.44;4420373;32;34059;-84
2024/01/31 06:38:39;;;;;;;;;;;;;;;1.62;59.94;101013.34;4406446;32;33209;-85
2024/01/31 06:41:07;;;;;;;;;;;;;;;1.57;60.03;101010.41;4408465;32;35212;-84
2024/01/31 06:43:35;;;;;;;;;;;;;;;1.66;59.59;101016.25;4407880;32;35005;-85
2024/01/31 06:46:02;;;;;;;;;;;;;;;1.62;59.40;101016.78;4422576;32;33405;-85
2024/01/31 06:48:29;;;;;;;;;;;;;;;1.55;59.73;101018.72;4408213;32;34496;-84
2024/01/31 06:50:57;;;;;;;;;;;;;;;1.55;59.48;101014.50;4422464;32;34159;-85
2024/01/31 06:53:24;;;;;;;;;;;;;;;1.60;59.18;101013.22;4421237;32;33611;-85
2024/01/31 06:55:51;;;;;;;;;;;;;;;1.75;58.80;101013.53;4421943;32;33405;-85
2024/01/31 06:58:19;;;;;;;;;;;;;;;1.80;58.67;101007.09;4408157;32;33928;-84
2024/01/31 07:00:47;;;;;;;;;;;;;;;1.73;58.62;100999.72;4421536;32;34313;-83
2024/01/31 07:03:15;;;;;;;;;;;;;;;1.74;58.83;101008.28;4421958;32;34894;-84
2024/01/31 07:05:42;;;;;;;;;;;;;;;1.74;58.50;101013.37;4422097;32;33216;-82
2024/01/31 07:08:09;;;;;;;;;;;;;;;1.65;58.85;101011.91;4420693;32;34922;-83
2024/01/31 07:10:37;;;;;;;;;;;;;;;1.74;59.00;101013.37;4432806;32;34462;-83
2024/01/31 07:13:04;;;;;;;;;;;;;;;1.79;59.20;101009.53;4422901;32;34104;-85
2024/01/31 07:15:32;;;;;;;;;;;;;;;1.83;59.46;101014.13;4415445;32;33631;-86
2024/01/31 07:17:59;;;;;;;;;;;;;;;1.86;59.71;101012.69;4430524;32;35310;-86
2024/01/31 07:20:26;;;;;;;;;;;;;;;1.89;59.80;101002.66;4421939;32;33704;-85
2024/01/31 07:22:54;;;;;;;;;;;;;;;1.75;60.79;101023.75;4421807;32;33468;-84
2024/01/31 07:25:21;;;;;;;;;;;;;;;1.89;60.57;101017.13;4421933;32;32887;-86
2024/01/31 07:27:50;;;;;;;;;;;;;;;1.86;61.29;101017.81;4421690;32;33991;-86
2024/01/31 07:30:17;;;;;;;;;;;;;;;2.02;61.28;101022.41;4421684;32;34097;-86
2024/01/31 07:32:44;;;;;;;;;;;;;;;2.01;61.79;101027.41;4421824;32;34120;-86
2024/01/31 07:35:11;;;;;;;;;;;;;;;2.02;62.16;101030.09;4407686;32;32258;-85
2024/01/31 07:37:39;;;;;;;;;;;;;;;2.16;62.06;101023.47;4421753;32;35099;-85
2024/01/31 07:40:09;;;;;;;;;;;;;;;2.25;62.08;101029.28;4421603;32;34478;-85
2024/01/31 07:42:37;;;;;;;;;;;;;;;2.39;61.90;101027.75;4408096;32;34294;-86
2024/01/31 07:45:05;;;;;;;;;;;;;;;2.40;62.32;101030.44;4421871;32;34297;-85
2024/01/31 07:47:32;;;;;;;;;;;;;;;2.51;62.26;101028.69;4407951;32;34036;-85
2024/01/31 07:50:00;;;;;;;;;;;;;;;2.39;63.38;101038.91;4407763;32;33883;-85
2024/01/31 07:52:27;;;;;;;;;;;;;;;2.61;62.98;101030.22;4421851;32;35120;-84
2024/01/31 07:54:55;;;;;;;;;;;;;;;2.31;64.32;101029.75;4421417;32;33048;-85
2024/01/31 07:57:22;;;;;;;;;;;;;;;2.38;64.52;101033.63;4421726;32;33633;-86
2024/01/31 07:59:49;;;;;;;;;;;;;;;2.27;65.03;101035.38;4421490;32;34006;-86
2024/01/31 08:02:17;;;;;;;;;;;;;;;2.43;64.75;101035.78;4421707;32;34619;-85
2024/01/31 08:04:45;;;;;;;;;;;;;;;2.61;64.53;101027.66;4421599;32;34859;-85
2024/01/31 08:07:13;;;;;;;;;;;;;;;2.90;63.92;101027.25;4421554;32;34232;-85
2024/01/31 08:09:40;;;;;;;;;;;;;;;3.05;63.60;101027.47;4421422;32;35285;-86
2024/01/31 08:12:08;;;;;;;;;;;;;;;2.86;64.27;101033.81;4395031;32;33522;-86
2024/01/31 08:14:35;;;;;;;;;;;;;;;3.01;64.05;101028.03;4421683;32;33348;-86
2024/01/31 08:17:02;;;;;;;;;;;;;;;2.85;64.64;101026.03;4407362;32;34199;-85
2024/01/31 08:19:30;;;;;;;;;;;;;;;3.05;64.61;101035.16;4429043;32;34095;-84
2024/01/31 08:21:57;;;;;;;;;;;;;;;2.81;65.59;101035.16;4421425;32;34165;-86
2024/01/31 08:24:25;;;;;;;;;;;;;;;3.08;65.07;101032.84;4412143;32;34222;-86
2024/01/31 08:26:52;;;;;;;;;;;;;;;2.72;66.40;101031.03;4426358;32;35579;-85
2024/01/31 08:29:20;;;;;;;;;;;;;;;2.97;65.88;101023.47;4421533;32;34356;-86
2024/01/31 08:31:54;;;;;;;;;;;;;;;3.24;65.39;101022.91;4421401;32;34729;-86
2024/01/31 08:34:22;;;;;;;;;;;;;;;3.36;65.19;101018.62;4421403;32;33316;-86
2024/01/31 08:36:53;;;;;;;;;;;;;;;3.33;65.55;101015.88;4421469;32;34175;-86
2024/01/31 08:39:22;;;;;;;;;;;;;;;3.13;66.38;101014.44;4421189;32;34876;-85
2024/01/31 08:41:49;;;;;;;;;;;;;;;3.58;64.74;101008.22;4421432;32;34714;-85
2024/01/31 08:44:17;;;;;;;;;;;;;;;3.60;64.17;100998.97;4421504;32;33195;-86
2024/01/31 08:46:44;;;;;;;;;;;;;;;3.66;62.70;101006.19;4421373;32;35028;-86
2024/01/31 08:49:30;;;;;;;;;;;;;;;3.69;63.05;101003.84;4421421;32;34106;-86
2024/01/31 08:51:58;;;;;;;;;;;;;;;3.72;62.37;101004.06;4421517;32;33941;-86
2024/01/31 08:54:27;;;;;;;;;;;;;;;3.52;62.45;100996.63;4421330;32;32944;-84
2024/01/31 08:56:55;;;;;;;;;;;;;;;3.72;60.97;100993.81;4421010;32;35233;-85
2024/01/31 08:59:23;;;;;;;;;;;;;;;4.05;59.72;100994.31;4420985;32;35059;-85
2024/01/31 09:01:50;;;;;;;;;;;;;;;3.95;60.50;100999.63;4420418;32;34107;-85
2024/01/31 09:04:19;;;;;;;;;;;;;;;4.24;59.99;100997.34;4421653;32;33541;-86
2024/01/31 09:06:49;;;;;;;;;;;;;;;4.05;60.07;100989.19;4419945;32;34318;-86
2024/01/31 09:09:17;;;;;;;;;;;;;;;3.93;58.81;101003.75;4407098;32;33459;-84
2024/01/31 09:11:44;;;;;;;;;;;;;;;4.13;58.76;100998.31;4421242;32;35077;-86
2024/01/31 09:14:12;;;;;;;;;;;;;;;4.21;58.38;100984.31;4419866;32;33564;-85
2024/01/31 09:16:39;;;;;;;;;;;;;;;4.15;58.26;100996.72;4421168;32;34096;-84
2024/01/31 09:19:07;;;;;;;;;;;;;;;4.25;58.25;100996.56;4415486;32;33840;-86
2024/01/31 09:21:35;;;;;;;;;;;;;;;4.20;58.65;101003.06;4406707;32;35289;-84
2024/01/31 09:24:02;;;;;;;;;;;;;;;4.44;57.75;101001.25;4407258;32;33059;-84
2024/01/31 09:26:30;;;;;;;;;;;;;;;4.16;57.85;100998.50;4409158;32;34927;-84
2024/01/31 09:28:57;;;;;;;;;;;;;;;4.36;57.69;101003.31;4422541;32;34325;-84
2024/01/31 09:31:25;;;;;;;;;;;;;;;4.42;57.24;100999.37;4421383;32;34372;-84
2024/01/31 09:33:52;;;;;;;;;;;;;;;4.63;56.92;100995.66;4420844;32;33343;-85
2024/01/31 09:36:20;;;;;;;;;;;;;;;4.54;57.50;101003.63;4419223;32;33884;-84
2024/01/31 09:38:48;;;;;;;;;;;;;;;4.62;56.03;100996.44;4419882;32;34513;-85
2024/01/31 09:41:16;;;;;;;;;;;;;;;4.93;55.32;100986.47;4420805;32;34269;-84
2024/01/31 09:43:43;;;;;;;;;;;;;;;4.67;56.32;100986.47;4420268;32;33868;-84
2024/01/31 09:46:11;;;;;;;;;;;;;;;4.72;56.64;100982.50;4420268;32;34811;-85
2024/01/31 09:48:39;;;;;;;;;;;;;;;4.31;57.41;100993.50;4410464;32;34460;-85
2024/01/31 09:51:06;;;;;;;;;;;;;;;4.07;57.86;100987.62;4435855;32;34301;-83
2024/01/31 09:53:36;;;;;;;;;;;;;;;4.45;57.38;100986.75;4415033;32;34362;-84
2024/01/31 09:56:05;;;;;;;;;;;;;;;4.49;55.85;100978.44;4419211;32;34178;-85
2024/01/31 09:58:32;;;;;;;;;;;;;;;4.51;56.16;100969.16;4419163;32;34808;-84
2024/01/31 10:01:01;;;;;;;;;;;;;;;4.63;56.25;100967.41;4420465;32;34196;-85
2024/01/31 10:03:40;;;;;;;;;;;;;;;4.59;56.41;100970.56;4410036;32;33356;-85
2024/01/31 10:06:07;;;;;;;;;;;;;;;4.43;56.40;100965.19;4400770;32;34209;-85
2024/01/31 10:08:39;;;;;;;;;;;;;;;4.18;57.09;100961.00;4420454;32;34364;-87
2024/01/31 10:11:06;;;;;;;;;;;;;;;4.30;56.67;100956.69;4420337;32;35195;-87
2024/01/31 10:13:34;;;;;;;;;;;;;;;4.39;57.18;100957.31;4420581;32;33467;-85
2024/01/31 10:16:01;;;;;;;;;;;;;;;4.56;55.98;100950.69;4422376;32;33746;-86
2024/01/31 10:18:29;;;;;;;;;;;;;;;4.37;57.09;100946.03;4422013;32;34400;-85
2024/01/31 10:20:57;;;;;;;;;;;;;;;4.70;56.19;100942.97;4422162;32;35021;-85
2024/01/31 10:23:26;;;;;;;;;;;;;;;5.22;55.24;100936.88;4422414;32;33408;-87
2024/01/31 10:25:53;;;;;;;;;;;;;;;5.16;55.83;100940.78;4423411;32;34015;-87
2024/01/31 10:28:22;;;;;;;;;;;;;;;5.36;55.29;100940.34;4434357;32;34518;-85
2024/01/31 10:30:50;;;;;;;;;;;;;;;4.97;55.35;100939.63;4412336;32;34911;-86
2024/01/31 10:33:17;;;;;;;;;;;;;;;4.67;55.88;100943.69;4421960;32;34236;-86
2024/01/31 10:35:45;;;;;;;;;;;;;;;4.72;55.85;100939.72;4420997;32;34170;-85
2024/01/31 10:38:33;;;;;;;;;;;;;;;4.70;56.28;100930.12;4422044;32;34309;-85
2024/01/31 10:41:00;;;;;;;;;;;;;;;4.86;56.47;100928.66;4424985;32;33824;-86
2024/01/31 10:43:28;;;;;;;;;;;;;;;5.13;55.60;100926.03;4427182;32;33265;-87
2024/01/31 10:45:56;;;;;;;;;;;;;;;5.06;56.34;100918.75;4420922;32;33925;-86
2024/01/31 10:48:23;;;;;;;;;;;;;;;5.46;55.83;100921.22;4422218;32;34408;-86
2024/01/31 10:50:50;;;;;;;;;;;;;;;5.21;55.15;100913.66;4421009;32;34984;-87
2024/01/31 10:53:18;;;;;;;;;;;;;;;5.41;54.10;100909.75;4422147;32;32991;-86
2024/01/31 10:55:46;;;;;;;;;;;;;;;5.25;55.38;100908.81;4422354;32;34203;-86
2024/01/31 10:58:14;;;;;;;;;;;;;;;5.63;54.44;100902.53;4420948;32;33836;-87
2024/01/31 11:00:45;;;;;;;;;;;;;;;5.43;54.51;100896.19;4422152;32;34170;-86
2024/01/31 11:03:17;;;;;;;;;;;;;;;5.43;54.26;100895.31;4420648;32;33248;-86
2024/01/31 11:05:46;;;;;;;;;;;;;;;5.29;54.77;100897.03;4421933;32;35084;-85
2024/01/31 11:08:20;;;;;;;;;;;;;;;5.50;54.84;100900.03;4420609;32;34486;-86
2024/01/31 11:10:48;;;;;;;;;;;;;;;5.70;53.79;100907.25;4420769;32;34758;-86
2024/01/31 11:13:15;;;;;;;;;;;;;;;5.72;54.76;100907.34;4422144;32;33526;-86
2024/01/31 11:15:43;;;;;;;;;;;;;;;5.47;54.29;100894.69;4408208;32;33715;-86
2024/01/31 11:18:11;;;;;;;;;;;;;;;5.62;54.03;100890.47;4421811;32;34166;-86
2024/01/31 11:20:40;;;;;;;;;;;;;;;5.68;54.49;100890.81;4421767;32;33869;-86
2024/01/31 11:23:07;;;;;;;;;;;;;;;5.87;53.64;100895.38;4420771;32;33168;-86
2024/01/31 11:25:38;;;;;;;;;;;;;;;5.95;53.89;100889.06;4421580;32;34782;-86
2024/01/31 11:28:06;;;;;;;;;;;;;;;5.66;53.61;100888.97;4420949;32;35144;-86
2024/01/31 11:30:33;;;;;;;;;;;;;;;5.76;53.29;100883.59;4422113;32;33942;-85
2024/01/31 11:33:01;;;;;;;;;;;;;;;5.48;54.52;100889.62;4420540;32;34371;-87
2024/01/31 11:35:29;;;;;;;;;;;;;;;5.75;53.59;100890.41;4420810;32;34677;-87
2024/01/31 11:37:57;;;;;;;;;;;;;;;6.11;52.61;100883.09;4421927;32;35138;-86
2024/01/31 11:40:24;;;;;;;;;;;;;;;5.89;53.49;100887.75;4420494;32;34360;-86
2024/01/31 11:42:53;;;;;;;;;;;;;;;5.48;54.44;100886.19;4421786;32;33367;-87
2024/01/31 11:45:25;;;;;;;;;;;;;;;5.54;54.04;100884.00;4421852;32;35141;-86
2024/01/31 11:47:56;;;;;;;;;;;;;;;5.90;53.73;100881.81;4421402;32;35233;-86
2024/01/31 11:50:26;;;;;;;;;;;;;;;5.95;52.66;100877.87;4420402;32;34096;-87
2024/01/31 11:52:54;;;;;;;;;;;;;;;5.83;53.44;100872.84;4420479;32;33619;-87
2024/01/31 11:55:29;;;;;;;;;;;;;;;5.87;53.63;100869.62;4421419;32;33966;-86
2024/01/31 11:57:56;;;;;;;;;;;;;;;6.02;51.98;100874.84;4413544;32;34356;-86
2024/01/31 12:00:23;;;;;;;;;;;;;;;6.17;51.62;100869.69;4407898;32;33470;-87
2024/01/31 12:02:52;;;;;;;;;;;;;;;6.07;52.92;100876.00;4407686;32;33529;-87
2024/01/31 12:05:19;;;;;;;;;;;;;;;5.41;53.72;100866.91;4407963;32;34246;-85
2024/01/31 12:07:58;;;;;;;;;;;;;;;5.79;53.14;100864.03;4421484;32;35235;-86
2024/01/31 12:10:27;;;;;;;;;;;;;;;5.86;53.83;100863.59;4421771;32;34162;-85
2024/01/31 12:12:56;;;;;;;;;;;;;;;6.31;53.20;100863.63;4407908;32;33347;-87
2024/01/31 12:15:23;;;;;;;;;;;;;;;6.36;52.55;100861.31;4407733;32;34126;-87
2024/01/31 12:17:51;;;;;;;;;;;;;;;6.40;52.02;100856.41;4421505;32;34921;-86
2024/01/31 12:20:18;;;;;;;;;;;;;;;6.45;52.37;100848.97;4421809;32;34083;-86
2024/01/31 12:22:46;;;;;;;;;;;;;;;6.34;51.94;100843.22;4421378;32;34200;-86
2024/01/31 12:25:13;;;;;;;;;;;;;;;6.46;51.06;100831.00;4421507;32;34612;-86
2024/01/31 12:27:41;;;;;;;;;;;;;;;6.23;51.53;100839.16;4395261;32;33624;-86
2024/01/31 12:30:09;;;;;;;;;;;;;;;5.98;52.48;100835.16;4421257;32;34229;-87
2024/01/31 12:32:37;;;;;;;;;;;;;;;6.18;51.05;100830.28;4421512;32;33548;-87
2024/01/31 12:35:04;;;;;;;;;;;;;;;6.07;51.91;100832.25;4421488;32;35080;-87
2024/01/31 12:37:32;;;;;;;;;;;;;;;6.37;51.24;100822.78;4420430;32;34134;-86
2024/01/31 12:39:59;;;;;;;;;;;;;;;6.27;51.91;100835.94;4407725;32;34341;-87
2024/01/31 12:42:27;;;;;;;;;;;;;;;6.22;51.98;100822.81;4407473;32;33447;-86
2024/01/31 12:44:56;;;;;;;;;;;;;;;6.53;51.45;100821.94;4421349;32;34600;-85
2024/01/31 12:47:24;;;;;;;;;;;;;;;6.34;51.77;100812.31;4421489;32;34516;-85
2024/01/31 12:49:51;;;;;;;;;;;;;;;6.25;52.10;100815.25;4421443;32;34999;-85
2024/01/31 12:52:23;;;;;;;;;;;;;;;6.16;52.30;100813.84;4421555;32;32815;-86